sensor_id;sensor_type;location;lat;lon;timestamp;P1;durP1;ratioP1;P2;durP2;ratioP2
8944;SDS011;4507;40.232;29.132;2022-12-08T00:00:11;157.07;;;113.53;;
8944;SDS011;4507;40.232;29.132;2022-12-08T00:02:42;163.60;;;102.70;;
8944;SDS011;4507;40.232;29.132;2022-12-08T00:05:11;135.10;;;101.00;;
8944;SDS011;4507;40.232;29.132;2022-12-08T00:07:57;160.50;;;114.77;;
8944;SDS011;4507;40.232;29.132;2022-12-08T00:11:02;154.87;;;116.90;;
8944;SDS011;4507;40.232;29.132;2022-12-08T00:13:31;149.00;;;118.20;;
8944;SDS011;4507;40.232;29.132;2022-12-08T00:16:00;163.27;;;122.53;;
8944;SDS011;4507;40.232;29.132;2022-12-08T00:18:30;170.93;;;124.87;;
8944;SDS011;4507;40.232;29.132;2022-12-08T00:20:59;149.13;;;111.90;;
8944;SDS011;4507;40.232;29.132;2022-12-08T00:23:46;146.37;;;107.80;;
8944;SDS011;4507;40.232;29.132;2022-12-08T00:26:15;128.43;;;91.33;;
8944;SDS011;4507;40.232;29.132;2022-12-08T00:28:44;138.77;;;101.07;;
8944;SDS011;4507;40.232;29.132;2022-12-08T00:31:13;136.47;;;99.57;;
8944;SDS011;4507;40.232;29.132;2022-12-08T00:33:44;116.20;;;88.03;;
8944;SDS011;4507;40.232;29.132;2022-12-08T00:36:13;109.67;;;81.97;;
8944;SDS011;4507;40.232;29.132;2022-12-08T00:38:42;106.60;;;79.03;;
8944;SDS011;4507;40.232;29.132;2022-12-08T00:41:14;108.47;;;80.80;;
8944;SDS011;4507;40.232;29.132;2022-12-08T00:44:03;117.03;;;83.60;;
8944;SDS011;4507;40.232;29.132;2022-12-08T00:46:32;103.17;;;77.03;;
8944;SDS011;4507;40.232;29.132;2022-12-08T00:49:03;101.17;;;78.50;;
8944;SDS011;4507;40.232;29.132;2022-12-08T00:51:32;109.30;;;80.30;;
8944;SDS011;4507;40.232;29.132;2022-12-08T00:54:02;103.70;;;79.20;;
8944;SDS011;4507;40.232;29.132;2022-12-08T00:56:31;101.80;;;77.03;;
8944;SDS011;4507;40.232;29.132;2022-12-08T00:59:01;115.10;;;80.60;;
8944;SDS011;4507;40.232;29.132;2022-12-08T01:01:31;101.33;;;75.83;;
8944;SDS011;4507;40.232;29.132;2022-12-08T01:04:03;100.37;;;74.73;;
8944;SDS011;4507;40.232;29.132;2022-12-08T01:06:33;105.83;;;81.50;;
8944;SDS011;4507;40.232;29.132;2022-12-08T01:09:03;104.83;;;79.33;;
8944;SDS011;4507;40.232;29.132;2022-12-08T01:11:35;109.20;;;83.83;;
8944;SDS011;4507;40.232;29.132;2022-12-08T01:14:04;103.70;;;81.77;;
8944;SDS011;4507;40.232;29.132;2022-12-08T01:16:33;108.20;;;80.50;;
8944;SDS011;4507;40.232;29.132;2022-12-08T01:19:04;108.53;;;80.70;;
8944;SDS011;4507;40.232;29.132;2022-12-08T01:21:36;104.97;;;80.80;;
8944;SDS011;4507;40.232;29.132;2022-12-08T01:24:05;105.17;;;80.03;;
8944;SDS011;4507;40.232;29.132;2022-12-08T01:26:37;108.17;;;81.23;;
8944;SDS011;4507;40.232;29.132;2022-12-08T01:29:06;104.10;;;81.20;;
8944;SDS011;4507;40.232;29.132;2022-12-08T01:31:35;114.00;;;83.30;;
8944;SDS011;4507;40.232;29.132;2022-12-08T01:34:06;113.13;;;83.37;;
8944;SDS011;4507;40.232;29.132;2022-12-08T01:36:36;111.13;;;87.63;;
8944;SDS011;4507;40.232;29.132;2022-12-08T01:39:05;113.93;;;87.00;;
8944;SDS011;4507;40.232;29.132;2022-12-08T01:41:37;112.47;;;85.87;;
8944;SDS011;4507;40.232;29.132;2022-12-08T01:47:12;111.90;;;84.60;;
8944;SDS011;4507;40.232;29.132;2022-12-08T01:49:43;111.23;;;81.93;;
8944;SDS011;4507;40.232;29.132;2022-12-08T01:52:13;110.93;;;81.10;;
8944;SDS011;4507;40.232;29.132;2022-12-08T01:54:48;106.97;;;80.07;;
8944;SDS011;4507;40.232;29.132;2022-12-08T01:57:21;106.77;;;79.63;;
8944;SDS011;4507;40.232;29.132;2022-12-08T01:59:58;103.23;;;79.63;;
8944;SDS011;4507;40.232;29.132;2022-12-08T02:02:33;109.80;;;79.03;;
8944;SDS011;4507;40.232;29.132;2022-12-08T02:05:08;106.50;;;78.67;;
8944;SDS011;4507;40.232;29.132;2022-12-08T02:07:37;105.87;;;78.70;;
8944;SDS011;4507;40.232;29.132;2022-12-08T02:10:07;98.07;;;74.17;;
8944;SDS011;4507;40.232;29.132;2022-12-08T02:12:37;102.17;;;73.07;;
8944;SDS011;4507;40.232;29.132;2022-12-08T02:15:07;95.60;;;73.97;;
8944;SDS011;4507;40.232;29.132;2022-12-08T02:17:40;102.30;;;75.63;;
8944;SDS011;4507;40.232;29.132;2022-12-08T02:20:28;93.97;;;70.07;;
8944;SDS011;4507;40.232;29.132;2022-12-08T02:23:17;97.80;;;70.53;;
8944;SDS011;4507;40.232;29.132;2022-12-08T02:26:06;93.47;;;74.03;;
8944;SDS011;4507;40.232;29.132;2022-12-08T02:28:55;99.40;;;76.90;;
8944;SDS011;4507;40.232;29.132;2022-12-08T02:31:44;99.27;;;76.87;;
8944;SDS011;4507;40.232;29.132;2022-12-08T02:34:26;102.50;;;79.03;;
8944;SDS011;4507;40.232;29.132;2022-12-08T02:37:01;100.30;;;76.47;;
8944;SDS011;4507;40.232;29.132;2022-12-08T02:39:38;103.63;;;79.30;;
8944;SDS011;4507;40.232;29.132;2022-12-08T02:42:14;100.70;;;78.07;;
8944;SDS011;4507;40.232;29.132;2022-12-08T02:44:50;97.47;;;74.73;;
8944;SDS011;4507;40.232;29.132;2022-12-08T02:47:23;94.27;;;76.03;;
8944;SDS011;4507;40.232;29.132;2022-12-08T02:49:56;93.50;;;72.67;;
8944;SDS011;4507;40.232;29.132;2022-12-08T02:55:14;92.80;;;74.57;;
8944;SDS011;4507;40.232;29.132;2022-12-08T02:57:54;99.73;;;72.40;;
8944;SDS011;4507;40.232;29.132;2022-12-08T03:00:49;94.07;;;72.00;;
8944;SDS011;4507;40.232;29.132;2022-12-08T03:03:29;93.93;;;71.43;;
8944;SDS011;4507;40.232;29.132;2022-12-08T03:06:08;124.53;;;71.73;;
8944;SDS011;4507;40.232;29.132;2022-12-08T03:08:48;96.27;;;70.10;;
8944;SDS011;4507;40.232;29.132;2022-12-08T03:11:23;102.27;;;70.17;;
8944;SDS011;4507;40.232;29.132;2022-12-08T03:13:58;91.70;;;69.27;;
8944;SDS011;4507;40.232;29.132;2022-12-08T03:16:29;94.87;;;72.07;;
8944;SDS011;4507;40.232;29.132;2022-12-08T03:19:02;96.83;;;71.67;;
8944;SDS011;4507;40.232;29.132;2022-12-08T03:21:38;96.43;;;74.00;;
8944;SDS011;4507;40.232;29.132;2022-12-08T03:24:29;93.23;;;73.53;;
8944;SDS011;4507;40.232;29.132;2022-12-08T03:27:02;93.27;;;73.23;;
8944;SDS011;4507;40.232;29.132;2022-12-08T03:29:55;96.50;;;73.20;;
8944;SDS011;4507;40.232;29.132;2022-12-08T03:32:25;100.90;;;76.70;;
8944;SDS011;4507;40.232;29.132;2022-12-08T03:35:02;101.40;;;75.10;;
8944;SDS011;4507;40.232;29.132;2022-12-08T03:37:55;111.37;;;80.97;;
8944;SDS011;4507;40.232;29.132;2022-12-08T03:40:30;223.43;;;154.67;;
8944;SDS011;4507;40.232;29.132;2022-12-08T03:42:59;171.57;;;122.10;;
8944;SDS011;4507;40.232;29.132;2022-12-08T03:45:28;158.53;;;116.37;;
8944;SDS011;4507;40.232;29.132;2022-12-08T03:47:57;124.83;;;90.87;;
8944;SDS011;4507;40.232;29.132;2022-12-08T03:50:26;101.03;;;76.57;;
8944;SDS011;4507;40.232;29.132;2022-12-08T03:52:56;105.80;;;75.10;;
8944;SDS011;4507;40.232;29.132;2022-12-08T03:55:25;104.93;;;76.87;;
8944;SDS011;4507;40.232;29.132;2022-12-08T03:57:54;101.40;;;74.97;;
8944;SDS011;4507;40.232;29.132;2022-12-08T04:00:23;112.47;;;76.03;;
8944;SDS011;4507;40.232;29.132;2022-12-08T04:02:52;107.37;;;71.60;;
8944;SDS011;4507;40.232;29.132;2022-12-08T04:05:21;113.10;;;73.33;;
8944;SDS011;4507;40.232;29.132;2022-12-08T04:07:50;98.47;;;71.43;;
8944;SDS011;4507;40.232;29.132;2022-12-08T04:10:25;101.37;;;72.53;;
8944;SDS011;4507;40.232;29.132;2022-12-08T04:12:55;96.93;;;72.57;;
8944;SDS011;4507;40.232;29.132;2022-12-08T04:15:24;101.20;;;72.10;;
8944;SDS011;4507;40.232;29.132;2022-12-08T04:17:53;88.00;;;67.27;;
8944;SDS011;4507;40.232;29.132;2022-12-08T04:20:22;90.00;;;68.43;;
8944;SDS011;4507;40.232;29.132;2022-12-08T04:22:50;94.23;;;67.60;;
8944;SDS011;4507;40.232;29.132;2022-12-08T04:25:19;121.17;;;73.13;;
8944;SDS011;4507;40.232;29.132;2022-12-08T04:27:50;87.47;;;65.27;;
8944;SDS011;4507;40.232;29.132;2022-12-08T04:30:19;94.37;;;67.70;;
8944;SDS011;4507;40.232;29.132;2022-12-08T04:32:48;90.03;;;65.33;;
8944;SDS011;4507;40.232;29.132;2022-12-08T04:35:16;89.00;;;65.77;;
8944;SDS011;4507;40.232;29.132;2022-12-08T04:37:45;88.17;;;64.00;;
8944;SDS011;4507;40.232;29.132;2022-12-08T04:40:15;97.53;;;65.87;;
8944;SDS011;4507;40.232;29.132;2022-12-08T04:42:45;87.43;;;64.50;;
8944;SDS011;4507;40.232;29.132;2022-12-08T04:45:15;85.90;;;63.27;;
8944;SDS011;4507;40.232;29.132;2022-12-08T04:47:45;95.73;;;65.77;;
8944;SDS011;4507;40.232;29.132;2022-12-08T04:50:14;103.53;;;65.60;;
8944;SDS011;4507;40.232;29.132;2022-12-08T04:52:43;98.60;;;62.33;;
8944;SDS011;4507;40.232;29.132;2022-12-08T04:55:12;97.33;;;62.60;;
8944;SDS011;4507;40.232;29.132;2022-12-08T04:57:41;105.53;;;63.20;;
8944;SDS011;4507;40.232;29.132;2022-12-08T05:00:11;109.17;;;63.93;;
8944;SDS011;4507;40.232;29.132;2022-12-08T05:02:44;88.67;;;63.60;;
8944;SDS011;4507;40.232;29.132;2022-12-08T05:05:15;106.97;;;63.33;;
8944;SDS011;4507;40.232;29.132;2022-12-08T05:07:44;111.20;;;63.13;;
8944;SDS011;4507;40.232;29.132;2022-12-08T05:10:13;119.97;;;63.70;;
8944;SDS011;4507;40.232;29.132;2022-12-08T05:12:42;107.87;;;64.23;;
8944;SDS011;4507;40.232;29.132;2022-12-08T05:15:11;130.10;;;67.47;;
8944;SDS011;4507;40.232;29.132;2022-12-08T05:17:40;101.23;;;65.27;;
8944;SDS011;4507;40.232;29.132;2022-12-08T05:20:11;123.60;;;64.03;;
8944;SDS011;4507;40.232;29.132;2022-12-08T05:22:40;145.60;;;63.60;;
8944;SDS011;4507;40.232;29.132;2022-12-08T05:25:09;119.93;;;63.47;;
8944;SDS011;4507;40.232;29.132;2022-12-08T05:27:38;187.90;;;65.70;;
8944;SDS011;4507;40.232;29.132;2022-12-08T05:30:07;137.37;;;63.77;;
8944;SDS011;4507;40.232;29.132;2022-12-08T05:32:37;99.93;;;61.47;;
8944;SDS011;4507;40.232;29.132;2022-12-08T05:35:06;130.60;;;64.20;;
8944;SDS011;4507;40.232;29.132;2022-12-08T05:37:36;100.70;;;61.83;;
8944;SDS011;4507;40.232;29.132;2022-12-08T05:40:07;110.37;;;61.43;;
8944;SDS011;4507;40.232;29.132;2022-12-08T05:42:36;130.57;;;60.40;;
8944;SDS011;4507;40.232;29.132;2022-12-08T05:45:05;95.87;;;58.93;;
8944;SDS011;4507;40.232;29.132;2022-12-08T05:47:35;122.43;;;60.63;;
8944;SDS011;4507;40.232;29.132;2022-12-08T05:50:05;95.07;;;58.60;;
8944;SDS011;4507;40.232;29.132;2022-12-08T05:52:34;117.50;;;60.90;;
8944;SDS011;4507;40.232;29.132;2022-12-08T05:55:24;111.07;;;59.23;;
8944;SDS011;4507;40.232;29.132;2022-12-08T05:57:52;103.30;;;59.63;;
8944;SDS011;4507;40.232;29.132;2022-12-08T06:00:22;102.30;;;59.30;;
8944;SDS011;4507;40.232;29.132;2022-12-08T06:02:50;105.97;;;60.10;;
8944;SDS011;4507;40.232;29.132;2022-12-08T06:05:19;97.97;;;58.77;;
8944;SDS011;4507;40.232;29.132;2022-12-08T06:07:50;106.63;;;59.40;;
8944;SDS011;4507;40.232;29.132;2022-12-08T06:10:19;95.53;;;57.20;;
8944;SDS011;4507;40.232;29.132;2022-12-08T06:12:48;98.17;;;57.43;;
8944;SDS011;4507;40.232;29.132;2022-12-08T06:15:17;86.20;;;54.73;;
8944;SDS011;4507;40.232;29.132;2022-12-08T06:17:46;88.47;;;57.27;;
8944;SDS011;4507;40.232;29.132;2022-12-08T06:20:15;108.63;;;56.37;;
8944;SDS011;4507;40.232;29.132;2022-12-08T06:22:45;90.70;;;53.97;;
8944;SDS011;4507;40.232;29.132;2022-12-08T06:25:15;79.90;;;50.37;;
8944;SDS011;4507;40.232;29.132;2022-12-08T06:27:44;84.10;;;49.87;;
8944;SDS011;4507;40.232;29.132;2022-12-08T06:30:13;81.17;;;49.17;;
8944;SDS011;4507;40.232;29.132;2022-12-08T06:32:43;79.27;;;46.37;;
8944;SDS011;4507;40.232;29.132;2022-12-08T06:35:12;71.53;;;46.27;;
8944;SDS011;4507;40.232;29.132;2022-12-08T06:37:41;121.63;;;50.07;;
8944;SDS011;4507;40.232;29.132;2022-12-08T06:40:10;69.40;;;41.47;;
8944;SDS011;4507;40.232;29.132;2022-12-08T06:42:41;69.40;;;41.10;;
8944;SDS011;4507;40.232;29.132;2022-12-08T06:45:13;129.70;;;45.70;;
8944;SDS011;4507;40.232;29.132;2022-12-08T06:47:43;83.77;;;41.60;;
8944;SDS011;4507;40.232;29.132;2022-12-08T06:50:12;58.27;;;39.23;;
8944;SDS011;4507;40.232;29.132;2022-12-08T06:52:41;68.87;;;39.77;;
8944;SDS011;4507;40.232;29.132;2022-12-08T06:55:28;52.17;;;38.80;;
8944;SDS011;4507;40.232;29.132;2022-12-08T06:58:19;52.63;;;39.03;;
8944;SDS011;4507;40.232;29.132;2022-12-08T07:01:07;51.20;;;38.03;;
8944;SDS011;4507;40.232;29.132;2022-12-08T07:03:38;56.90;;;37.87;;
8944;SDS011;4507;40.232;29.132;2022-12-08T07:06:13;56.63;;;37.47;;
8944;SDS011;4507;40.232;29.132;2022-12-08T07:08:43;49.43;;;35.37;;
8944;SDS011;4507;40.232;29.132;2022-12-08T07:11:12;49.17;;;35.30;;
8944;SDS011;4507;40.232;29.132;2022-12-08T07:13:49;57.03;;;37.37;;
8944;SDS011;4507;40.232;29.132;2022-12-08T07:16:18;78.33;;;37.20;;
8944;SDS011;4507;40.232;29.132;2022-12-08T07:18:47;72.97;;;36.83;;
8944;SDS011;4507;40.232;29.132;2022-12-08T07:21:16;66.23;;;36.47;;
8944;SDS011;4507;40.232;29.132;2022-12-08T07:23:45;60.70;;;38.63;;
8944;SDS011;4507;40.232;29.132;2022-12-08T07:26:24;55.93;;;39.30;;
8944;SDS011;4507;40.232;29.132;2022-12-08T07:28:55;54.63;;;37.23;;
8944;SDS011;4507;40.232;29.132;2022-12-08T07:31:25;60.00;;;37.90;;
8944;SDS011;4507;40.232;29.132;2022-12-08T07:33:55;57.07;;;37.20;;
8944;SDS011;4507;40.232;29.132;2022-12-08T07:36:24;58.53;;;36.67;;
8944;SDS011;4507;40.232;29.132;2022-12-08T07:38:53;50.03;;;36.13;;
8944;SDS011;4507;40.232;29.132;2022-12-08T07:41:23;45.07;;;36.20;;
8944;SDS011;4507;40.232;29.132;2022-12-08T07:43:54;48.90;;;38.00;;
8944;SDS011;4507;40.232;29.132;2022-12-08T07:46:24;57.13;;;37.67;;
8944;SDS011;4507;40.232;29.132;2022-12-08T07:48:54;51.50;;;39.70;;
8944;SDS011;4507;40.232;29.132;2022-12-08T07:51:23;74.93;;;39.60;;
8944;SDS011;4507;40.232;29.132;2022-12-08T07:53:52;76.30;;;39.83;;
8944;SDS011;4507;40.232;29.132;2022-12-08T07:56:21;60.43;;;40.07;;
8944;SDS011;4507;40.232;29.132;2022-12-08T07:58:50;65.17;;;39.10;;
8944;SDS011;4507;40.232;29.132;2022-12-08T08:01:22;66.97;;;38.83;;
8944;SDS011;4507;40.232;29.132;2022-12-08T08:03:53;57.60;;;36.63;;
8944;SDS011;4507;40.232;29.132;2022-12-08T08:06:23;51.63;;;35.07;;
8944;SDS011;4507;40.232;29.132;2022-12-08T08:08:52;44.73;;;34.43;;
8944;SDS011;4507;40.232;29.132;2022-12-08T08:11:21;63.60;;;38.30;;
8944;SDS011;4507;40.232;29.132;2022-12-08T08:13:50;118.47;;;41.43;;
8944;SDS011;4507;40.232;29.132;2022-12-08T08:16:20;50.07;;;37.77;;
8944;SDS011;4507;40.232;29.132;2022-12-08T08:18:50;92.63;;;39.80;;
8944;SDS011;4507;40.232;29.132;2022-12-08T08:21:20;64.27;;;38.63;;
8944;SDS011;4507;40.232;29.132;2022-12-08T08:24:10;52.97;;;36.80;;
8944;SDS011;4507;40.232;29.132;2022-12-08T08:26:39;70.73;;;35.07;;
8944;SDS011;4507;40.232;29.132;2022-12-08T08:29:08;64.83;;;38.80;;
8944;SDS011;4507;40.232;29.132;2022-12-08T08:31:39;51.40;;;36.40;;
8944;SDS011;4507;40.232;29.132;2022-12-08T08:34:08;52.23;;;35.87;;
8944;SDS011;4507;40.232;29.132;2022-12-08T08:36:37;54.67;;;34.03;;
8944;SDS011;4507;40.232;29.132;2022-12-08T08:39:07;49.93;;;34.23;;
8944;SDS011;4507;40.232;29.132;2022-12-08T08:41:36;59.00;;;34.23;;
8944;SDS011;4507;40.232;29.132;2022-12-08T08:44:05;69.17;;;36.17;;
8944;SDS011;4507;40.232;29.132;2022-12-08T08:46:34;48.07;;;35.13;;
8944;SDS011;4507;40.232;29.132;2022-12-08T08:49:05;44.03;;;33.87;;
8944;SDS011;4507;40.232;29.132;2022-12-08T08:51:37;63.07;;;34.77;;
8944;SDS011;4507;40.232;29.132;2022-12-08T08:54:06;50.57;;;33.37;;
8944;SDS011;4507;40.232;29.132;2022-12-08T08:56:35;62.93;;;29.00;;
8944;SDS011;4507;40.232;29.132;2022-12-08T08:59:04;40.53;;;28.27;;
8944;SDS011;4507;40.232;29.132;2022-12-08T09:01:33;43.10;;;26.83;;
8944;SDS011;4507;40.232;29.132;2022-12-08T09:04:04;60.47;;;29.93;;
8944;SDS011;4507;40.232;29.132;2022-12-08T09:06:33;40.23;;;27.90;;
8944;SDS011;4507;40.232;29.132;2022-12-08T09:09:03;55.30;;;29.37;;
8944;SDS011;4507;40.232;29.132;2022-12-08T09:11:32;40.57;;;27.87;;
8944;SDS011;4507;40.232;29.132;2022-12-08T09:14:01;48.90;;;28.63;;
8944;SDS011;4507;40.232;29.132;2022-12-08T09:16:30;51.33;;;27.60;;
8944;SDS011;4507;40.232;29.132;2022-12-08T09:19:08;45.23;;;28.10;;
8944;SDS011;4507;40.232;29.132;2022-12-08T09:21:38;40.83;;;25.23;;
8944;SDS011;4507;40.232;29.132;2022-12-08T09:24:07;42.93;;;27.20;;
8944;SDS011;4507;40.232;29.132;2022-12-08T09:26:41;46.20;;;27.40;;
8944;SDS011;4507;40.232;29.132;2022-12-08T09:29:16;51.43;;;30.00;;
8944;SDS011;4507;40.232;29.132;2022-12-08T09:31:45;73.50;;;36.00;;
8944;SDS011;4507;40.232;29.132;2022-12-08T09:34:16;52.13;;;33.67;;
8944;SDS011;4507;40.232;29.132;2022-12-08T09:36:45;47.00;;;29.87;;
8944;SDS011;4507;40.232;29.132;2022-12-08T09:39:14;39.73;;;30.30;;
8944;SDS011;4507;40.232;29.132;2022-12-08T09:41:44;70.47;;;29.33;;
8944;SDS011;4507;40.232;29.132;2022-12-08T09:44:28;41.57;;;29.13;;
8944;SDS011;4507;40.232;29.132;2022-12-08T09:47:11;56.50;;;31.43;;
8944;SDS011;4507;40.232;29.132;2022-12-08T09:49:46;45.20;;;33.30;;
8944;SDS011;4507;40.232;29.132;2022-12-08T09:52:20;42.27;;;29.63;;
8944;SDS011;4507;40.232;29.132;2022-12-08T09:54:53;38.53;;;30.67;;
8944;SDS011;4507;40.232;29.132;2022-12-08T09:57:26;44.03;;;28.60;;
8944;SDS011;4507;40.232;29.132;2022-12-08T09:59:58;40.23;;;25.20;;
8944;SDS011;4507;40.232;29.132;2022-12-08T10:02:31;52.93;;;27.10;;
8944;SDS011;4507;40.232;29.132;2022-12-08T10:05:02;40.70;;;31.67;;
8944;SDS011;4507;40.232;29.132;2022-12-08T10:07:35;43.13;;;31.20;;
8944;SDS011;4507;40.232;29.132;2022-12-08T10:10:13;45.57;;;28.07;;
8944;SDS011;4507;40.232;29.132;2022-12-08T10:12:53;45.73;;;26.00;;
8944;SDS011;4507;40.232;29.132;2022-12-08T10:15:34;37.77;;;26.90;;
8944;SDS011;4507;40.232;29.132;2022-12-08T10:18:10;39.53;;;25.33;;
8944;SDS011;4507;40.232;29.132;2022-12-08T10:20:44;56.70;;;28.17;;
8944;SDS011;4507;40.232;29.132;2022-12-08T10:23:24;48.67;;;27.33;;
8944;SDS011;4507;40.232;29.132;2022-12-08T10:25:57;58.47;;;30.67;;
8944;SDS011;4507;40.232;29.132;2022-12-08T10:28:30;42.00;;;28.50;;
8944;SDS011;4507;40.232;29.132;2022-12-08T10:31:12;58.03;;;28.70;;
8944;SDS011;4507;40.232;29.132;2022-12-08T10:33:43;31.50;;;21.90;;
8944;SDS011;4507;40.232;29.132;2022-12-08T10:36:15;41.83;;;23.50;;
8944;SDS011;4507;40.232;29.132;2022-12-08T10:38:44;59.30;;;22.27;;
8944;SDS011;4507;40.232;29.132;2022-12-08T10:41:14;29.40;;;19.97;;
8944;SDS011;4507;40.232;29.132;2022-12-08T10:43:46;32.30;;;21.97;;
8944;SDS011;4507;40.232;29.132;2022-12-08T10:46:17;34.23;;;20.03;;
8944;SDS011;4507;40.232;29.132;2022-12-08T10:48:49;28.47;;;20.03;;
8944;SDS011;4507;40.232;29.132;2022-12-08T10:51:26;29.00;;;19.77;;
8944;SDS011;4507;40.232;29.132;2022-12-08T10:53:56;31.00;;;17.97;;
8944;SDS011;4507;40.232;29.132;2022-12-08T10:56:26;27.57;;;18.53;;
8944;SDS011;4507;40.232;29.132;2022-12-08T11:01:45;84.77;;;27.33;;
8944;SDS011;4507;40.232;29.132;2022-12-08T11:04:16;34.80;;;19.40;;
8944;SDS011;4507;40.232;29.132;2022-12-08T11:06:49;37.27;;;20.10;;
8944;SDS011;4507;40.232;29.132;2022-12-08T11:09:23;53.13;;;20.60;;
8944;SDS011;4507;40.232;29.132;2022-12-08T11:12:05;23.60;;;18.10;;
8944;SDS011;4507;40.232;29.132;2022-12-08T11:14:45;33.33;;;20.33;;
8944;SDS011;4507;40.232;29.132;2022-12-08T11:17:21;34.80;;;23.47;;
8944;SDS011;4507;40.232;29.132;2022-12-08T11:19:57;45.40;;;23.70;;
8944;SDS011;4507;40.232;29.132;2022-12-08T11:22:30;38.13;;;27.30;;
8944;SDS011;4507;40.232;29.132;2022-12-08T11:25:01;33.23;;;25.23;;
8944;SDS011;4507;40.232;29.132;2022-12-08T11:27:38;52.30;;;30.60;;
8944;SDS011;4507;40.232;29.132;2022-12-08T11:32:42;44.33;;;26.43;;
8944;SDS011;4507;40.232;29.132;2022-12-08T11:35:16;50.63;;;28.53;;
8944;SDS011;4507;40.232;29.132;2022-12-08T11:37:51;43.17;;;26.73;;
8944;SDS011;4507;40.232;29.132;2022-12-08T11:40:43;48.63;;;30.43;;
8944;SDS011;4507;40.232;29.132;2022-12-08T11:43:14;60.03;;;27.37;;
8944;SDS011;4507;40.232;29.132;2022-12-08T11:45:47;35.97;;;24.33;;
8944;SDS011;4507;40.232;29.132;2022-12-08T11:48:22;47.33;;;27.83;;
8944;SDS011;4507;40.232;29.132;2022-12-08T11:50:56;36.73;;;25.23;;
8944;SDS011;4507;40.232;29.132;2022-12-08T11:53:32;35.63;;;23.37;;
8944;SDS011;4507;40.232;29.132;2022-12-08T11:56:12;42.47;;;25.10;;
8944;SDS011;4507;40.232;29.132;2022-12-08T11:58:48;42.30;;;28.67;;
8944;SDS011;4507;40.232;29.132;2022-12-08T12:01:21;39.33;;;27.67;;
8944;SDS011;4507;40.232;29.132;2022-12-08T12:03:54;51.40;;;32.60;;
8944;SDS011;4507;40.232;29.132;2022-12-08T12:06:36;51.73;;;31.47;;
8944;SDS011;4507;40.232;29.132;2022-12-08T12:09:29;57.60;;;30.77;;
8944;SDS011;4507;40.232;29.132;2022-12-08T12:12:11;46.27;;;30.83;;
8944;SDS011;4507;40.232;29.132;2022-12-08T12:15:01;50.33;;;34.73;;
8944;SDS011;4507;40.232;29.132;2022-12-08T12:18:00;64.83;;;38.03;;
8944;SDS011;4507;40.232;29.132;2022-12-08T12:20:32;90.13;;;42.20;;
8944;SDS011;4507;40.232;29.132;2022-12-08T12:23:04;71.70;;;43.13;;
8944;SDS011;4507;40.232;29.132;2022-12-08T12:25:37;66.03;;;40.23;;
8944;SDS011;4507;40.232;29.132;2022-12-08T12:28:17;81.83;;;44.70;;
8944;SDS011;4507;40.232;29.132;2022-12-08T12:31:06;93.13;;;44.30;;
8944;SDS011;4507;40.232;29.132;2022-12-08T12:33:37;69.33;;;43.00;;
8944;SDS011;4507;40.232;29.132;2022-12-08T12:36:06;68.23;;;46.50;;
8944;SDS011;4507;40.232;29.132;2022-12-08T12:38:38;76.43;;;49.53;;
8944;SDS011;4507;40.232;29.132;2022-12-08T12:41:35;76.07;;;47.50;;
8944;SDS011;4507;40.232;29.132;2022-12-08T12:47:11;90.17;;;47.63;;
8944;SDS011;4507;40.232;29.132;2022-12-08T12:50:06;68.80;;;38.07;;
8944;SDS011;4507;40.232;29.132;2022-12-08T12:52:37;60.17;;;29.43;;
8944;SDS011;4507;40.232;29.132;2022-12-08T12:58:32;49.17;;;28.73;;
8944;SDS011;4507;40.232;29.132;2022-12-08T13:04:17;37.37;;;22.57;;
8944;SDS011;4507;40.232;29.132;2022-12-08T13:06:47;39.07;;;22.20;;
8944;SDS011;4507;40.232;29.132;2022-12-08T13:09:26;48.70;;;23.53;;
8944;SDS011;4507;40.232;29.132;2022-12-08T13:12:18;72.77;;;29.17;;
8944;SDS011;4507;40.232;29.132;2022-12-08T13:14:52;45.47;;;23.97;;
8944;SDS011;4507;40.232;29.132;2022-12-08T13:17:26;40.93;;;24.80;;
8944;SDS011;4507;40.232;29.132;2022-12-08T13:19:58;61.47;;;26.80;;
8944;SDS011;4507;40.232;29.132;2022-12-08T13:22:56;51.40;;;30.90;;
8944;SDS011;4507;40.232;29.132;2022-12-08T13:31:52;39.07;;;27.13;;
8944;SDS011;4507;40.232;29.132;2022-12-08T13:34:24;44.63;;;25.07;;
8944;SDS011;4507;40.232;29.132;2022-12-08T13:37:05;37.90;;;24.60;;
8944;SDS011;4507;40.232;29.132;2022-12-08T13:39:46;106.60;;;65.13;;
8944;SDS011;4507;40.232;29.132;2022-12-08T13:42:20;143.63;;;83.23;;
8944;SDS011;4507;40.232;29.132;2022-12-08T13:44:58;241.03;;;152.57;;
8944;SDS011;4507;40.232;29.132;2022-12-08T13:47:55;170.90;;;84.77;;
8944;SDS011;4507;40.232;29.132;2022-12-08T13:50:49;73.20;;;37.47;;
8944;SDS011;4507;40.232;29.132;2022-12-08T13:53:43;68.30;;;35.93;;
8944;SDS011;4507;40.232;29.132;2022-12-08T13:56:40;99.13;;;40.47;;
8944;SDS011;4507;40.232;29.132;2022-12-08T13:59:31;75.47;;;35.13;;
8944;SDS011;4507;40.232;29.132;2022-12-08T14:02:03;52.07;;;29.30;;
8944;SDS011;4507;40.232;29.132;2022-12-08T14:04:42;54.47;;;28.53;;
8944;SDS011;4507;40.232;29.132;2022-12-08T14:07:33;55.80;;;28.17;;
8944;SDS011;4507;40.232;29.132;2022-12-08T14:10:06;46.07;;;27.70;;
8944;SDS011;4507;40.232;29.132;2022-12-08T14:12:37;41.13;;;28.53;;
8944;SDS011;4507;40.232;29.132;2022-12-08T14:15:10;70.20;;;31.03;;
8944;SDS011;4507;40.232;29.132;2022-12-08T14:18:00;67.00;;;33.57;;
8944;SDS011;4507;40.232;29.132;2022-12-08T14:20:32;79.30;;;37.43;;
8944;SDS011;4507;40.232;29.132;2022-12-08T14:23:22;55.90;;;38.30;;
8944;SDS011;4507;40.232;29.132;2022-12-08T14:25:51;59.33;;;38.47;;
8944;SDS011;4507;40.232;29.132;2022-12-08T14:28:20;101.00;;;44.53;;
8944;SDS011;4507;40.232;29.132;2022-12-08T14:30:50;81.10;;;45.23;;
8944;SDS011;4507;40.232;29.132;2022-12-08T14:33:22;89.43;;;48.97;;
8944;SDS011;4507;40.232;29.132;2022-12-08T14:35:54;98.30;;;60.87;;
8944;SDS011;4507;40.232;29.132;2022-12-08T14:38:24;89.87;;;53.63;;
8944;SDS011;4507;40.232;29.132;2022-12-08T14:41:01;90.67;;;53.70;;
8944;SDS011;4507;40.232;29.132;2022-12-08T14:43:31;87.27;;;48.77;;
8944;SDS011;4507;40.232;29.132;2022-12-08T14:46:02;82.83;;;48.57;;
8944;SDS011;4507;40.232;29.132;2022-12-08T14:48:39;134.97;;;56.70;;
8944;SDS011;4507;40.232;29.132;2022-12-08T14:51:15;282.13;;;108.17;;
8944;SDS011;4507;40.232;29.132;2022-12-08T14:53:53;234.20;;;95.00;;
8944;SDS011;4507;40.232;29.132;2022-12-08T14:56:27;184.70;;;74.27;;
8944;SDS011;4507;40.232;29.132;2022-12-08T14:59:01;141.23;;;62.80;;
8944;SDS011;4507;40.232;29.132;2022-12-08T15:01:33;450.30;;;191.00;;
8944;SDS011;4507;40.232;29.132;2022-12-08T15:04:06;156.30;;;65.83;;
8944;SDS011;4507;40.232;29.132;2022-12-08T15:06:45;149.33;;;60.07;;
8944;SDS011;4507;40.232;29.132;2022-12-08T15:09:27;86.63;;;45.73;;
8944;SDS011;4507;40.232;29.132;2022-12-08T15:11:59;126.37;;;47.53;;
8944;SDS011;4507;40.232;29.132;2022-12-08T15:14:30;104.97;;;43.07;;
8944;SDS011;4507;40.232;29.132;2022-12-08T15:17:00;109.77;;;46.63;;
8944;SDS011;4507;40.232;29.132;2022-12-08T15:19:30;109.57;;;44.33;;
8944;SDS011;4507;40.232;29.132;2022-12-08T15:22:06;114.23;;;47.03;;
8944;SDS011;4507;40.232;29.132;2022-12-08T15:24:40;102.27;;;42.87;;
8944;SDS011;4507;40.232;29.132;2022-12-08T15:27:10;95.03;;;46.23;;
8944;SDS011;4507;40.232;29.132;2022-12-08T15:29:45;92.23;;;45.03;;
8944;SDS011;4507;40.232;29.132;2022-12-08T15:32:16;89.67;;;44.90;;